Time;durP1;ratioP1;P1;durP2;ratioP2;P2;SDS_P1;SDS_P2;PMS_P1;PMS_P2;Temp;Humidity;BMP_temperature;BMP_pressure;BME280_temperature;BME280_humidity;BME280_pressure;Samples;Min_cycle;Max_cycle;Signal;HPM_P1;HPM_P2
2022/07/17 00:00:18;;;;;;;6.20;5.60;;;;;;;11.34;100.00;99629.30;105320;1271;69251;-71
2022/07/17 00:03:03;;;;;;;5.80;5.20;;;;;;;11.31;100.00;99626.27;105267;1271;73263;-73
2022/07/17 00:05:29;;;;;;;5.90;5.40;;;;;;;11.29;100.00;99627.82;105203;1271;61366;-73
2022/07/17 00:07:54;;;;;;;5.60;5.10;;;;;;;11.28;100.00;99630.20;104933;1274;61361;-72
2022/07/17 00:10:21;;;;;;;5.70;5.20;;;;;;;11.27;100.00;99637.04;105242;1271;61327;-72
2022/07/17 00:12:47;;;;;;;6.70;6.10;;;;;;;11.26;100.00;99643.69;105225;1271;61378;-72
2022/07/17 00:15:12;;;;;;;6.60;5.90;;;;;;;11.24;100.00;99640.39;105233;1271;61377;-72
2022/07/17 00:17:39;;;;;;;9.10;6.60;;;;;;;11.22;100.00;99645.67;105222;1269;61329;-71
2022/07/17 00:20:07;;;;;;;6.30;5.80;;;;;;;11.20;100.00;99647.71;104988;1271;61375;-71
2022/07/17 00:22:33;;;;;;;6.60;6.00;;;;;;;11.19;100.00;99645.83;105306;1272;61380;-72
2022/07/17 00:24:59;;;;;;;7.20;6.60;;;;;;;11.17;100.00;99648.65;104977;1274;61397;-72
2022/07/17 00:27:25;;;;;;;6.90;6.30;;;;;;;11.15;100.00;99644.84;105213;1271;61309;-72
2022/07/17 00:29:51;;;;;;;9.40;7.50;;;;;;;11.10;100.00;99652.07;105223;1269;61372;-72
2022/07/17 00:32:18;;;;;;;36.00;29.20;;;;;;;11.09;100.00;99649.85;105203;1271;61246;-72
2022/07/17 00:34:44;;;;;;;44.00;32.00;;;;;;;11.09;100.00;99645.73;105212;1271;61370;-71
2022/07/17 00:37:10;;;;;;;39.20;31.80;;;;;;;11.10;100.00;99643.55;105263;1271;61355;-72
2022/07/17 00:39:36;;;;;;;31.70;27.30;;;;;;;11.09;100.00;99643.23;105008;1271;61320;-71
2022/07/17 00:42:02;;;;;;;30.30;25.80;;;;;;;11.06;100.00;99644.86;105225;1271;61275;-71
2022/07/17 00:44:28;;;;;;;23.70;21.40;;;;;;;11.02;100.00;99643.67;105177;1271;61817;-70
2022/07/17 00:46:54;;;;;;;20.10;17.50;;;;;;;10.97;100.00;99643.06;105202;1271;61361;-72
2022/07/17 00:49:20;;;;;;;19.80;16.50;;;;;;;10.92;100.00;99645.46;105182;1271;61284;-72
2022/07/17 00:51:46;;;;;;;15.10;13.50;;;;;;;10.89;100.00;99652.23;105233;1271;61291;-72
2022/07/17 00:54:15;;;;;;;11.80;10.70;;;;;;;10.85;100.00;99652.98;105219;1269;61406;-71
2022/07/17 00:56:45;;;;;;;8.60;7.90;;;;;;;10.82;100.00;99658.01;105266;1271;61812;-71
2022/07/17 00:59:14;;;;;;;7.80;7.10;;;;;;;10.80;100.00;99655.80;104994;1271;69408;-71
2022/07/17 01:01:41;;;;;;;7.60;6.90;;;;;;;10.79;100.00;99652.10;105192;1271;73527;-72
2022/07/17 01:04:06;;;;;;;8.30;7.60;;;;;;;10.78;100.00;99650.54;105208;1270;61409;-71
2022/07/17 01:06:32;;;;;;;9.10;8.30;;;;;;;10.77;100.00;99655.77;105221;1271;61339;-71
2022/07/17 01:08:59;;;;;;;8.50;7.70;;;;;;;10.76;100.00;99651.70;105214;1271;61367;-72
2022/07/17 01:11:25;;;;;;;7.70;6.90;;;;;;;10.76;100.00;99652.98;105218;1269;61366;-71
2022/07/17 01:13:52;;;;;;;11.50;7.90;;;;;;;10.75;100.00;99654.11;104975;1271;61425;-71
2022/07/17 01:16:18;;;;;;;8.00;7.20;;;;;;;10.73;100.00;99655.77;105207;1271;61335;-72
2022/07/17 01:18:44;;;;;;;11.50;7.70;;;;;;;10.72;100.00;99657.26;105191;1271;61287;-72
2022/07/17 01:21:10;;;;;;;7.70;7.00;;;;;;;10.70;100.00;99658.42;105188;1271;61355;-71
2022/07/17 01:23:37;;;;;;;8.50;7.70;;;;;;;10.70;100.00;99656.37;105171;1271;61393;-72
2022/07/17 01:26:03;;;;;;;9.50;8.00;;;;;;;10.70;100.00;99654.41;105209;1271;61381;-72
2022/07/17 01:28:30;;;;;;;8.40;7.60;;;;;;;10.69;100.00;99656.74;105205;1271;61279;-72
2022/07/17 01:30:56;;;;;;;10.10;8.00;;;;;;;10.68;100.00;99654.29;105072;1274;61381;-72
2022/07/17 01:33:22;;;;;;;9.00;8.10;;;;;;;10.68;100.00;99657.19;104922;1273;62051;-72
2022/07/17 01:35:49;;;;;;;10.70;8.50;;;;;;;10.66;100.00;99656.71;105172;1270;61313;-72
2022/07/17 01:38:15;;;;;;;8.50;7.70;;;;;;;10.66;100.00;99661.23;105215;1271;61397;-72
2022/07/17 01:40:41;;;;;;;10.00;8.70;;;;;;;10.65;100.00;99660.21;105239;1271;61361;-72
2022/07/17 01:43:08;;;;;;;10.90;8.60;;;;;;;10.63;100.00;99660.64;105193;1271;74869;-72
2022/07/17 01:45:34;;;;;;;9.60;8.80;;;;;;;10.61;100.00;99661.45;105284;1271;70495;-72
2022/07/17 01:48:00;;;;;;;10.70;9.60;;;;;;;10.60;100.00;99662.75;105209;1269;61355;-72
2022/07/17 01:50:26;;;;;;;10.20;9.20;;;;;;;10.60;100.00;99660.67;105227;1271;61303;-72
2022/07/17 01:52:52;;;;;;;10.50;9.40;;;;;;;10.59;100.00;99665.83;105197;1271;61461;-72
2022/07/17 01:55:18;;;;;;;10.60;9.50;;;;;;;10.59;100.00;99664.63;105185;1271;61432;-72
2022/07/17 01:57:45;;;;;;;10.60;9.50;;;;;;;10.58;100.00;99661.80;104941;1271;61293;-72
2022/07/17 02:00:33;;;;;;;10.40;9.40;;;;;;;10.57;100.00;99664.71;105170;1270;61352;-72
2022/07/17 02:02:59;;;;;;;10.80;9.40;;;;;;;10.54;100.00;99664.15;105199;1268;61277;-71
2022/07/17 02:05:25;;;;;;;11.10;9.90;;;;;;;10.52;100.00;99661.06;105171;1271;61546;-72
2022/07/17 02:07:51;;;;;;;11.40;9.40;;;;;;;10.51;100.00;99662.72;105123;1271;61371;-71
2022/07/17 02:10:17;;;;;;;11.30;10.20;;;;;;;10.50;100.00;99658.54;105127;1271;61317;-71
2022/07/17 02:12:45;;;;;;;12.20;10.90;;;;;;;10.50;100.00;99659.39;105128;1271;61248;-72
2022/07/17 02:15:12;;;;;;;11.90;10.30;;;;;;;10.48;100.00;99656.48;105298;1271;61311;-72
2022/07/17 02:17:40;;;;;;;12.30;11.00;;;;;;;10.46;100.00;99659.99;105211;1271;61157;-72
2022/07/17 02:20:07;;;;;;;13.90;12.30;;;;;;;10.44;100.00;99659.76;105265;1271;75634;-72
2022/07/17 02:22:34;;;;;;;14.90;13.60;;;;;;;10.42;100.00;99658.61;105249;1271;69351;-72
2022/07/17 02:25:00;;;;;;;14.80;13.10;;;;;;;10.41;100.00;99660.10;105298;1271;74303;-72
2022/07/17 02:27:27;;;;;;;13.40;12.10;;;;;;;10.41;100.00;99659.92;105205;1271;61726;-72
2022/07/17 02:29:52;;;;;;;13.30;12.00;;;;;;;10.40;100.00;99659.47;105206;1271;61334;-72
2022/07/17 02:32:18;;;;;;;12.70;11.50;;;;;;;10.36;100.00;99662.85;105204;1271;61339;-72
2022/07/17 02:34:45;;;;;;;12.40;9.80;;;;;;;10.33;100.00;99658.59;105192;1271;61264;-72
2022/07/17 02:37:11;;;;;;;10.00;9.00;;;;;;;10.29;100.00;99658.83;104962;1271;61378;-72
2022/07/17 02:39:51;;;;;;;9.70;8.90;;;;;;;10.25;100.00;99659.89;105201;1271;61361;-72
2022/07/17 02:42:23;;;;;;;12.00;10.80;;;;;;;10.21;100.00;99666.52;105193;1271;61188;-72
2022/07/17 02:44:50;;;;;;;14.10;10.60;;;;;;;10.17;100.00;99666.90;105278;1271;74421;-70
2022/07/17 02:47:28;;;;;;;13.00;11.60;;;;;;;10.15;100.00;99670.02;105225;1271;69459;-71
2022/07/17 02:49:54;;;;;;;12.10;10.90;;;;;;;10.15;100.00;99668.25;105303;1269;74345;-73
2022/07/17 02:52:21;;;;;;;10.60;9.60;;;;;;;10.15;100.00;99669.30;104995;1271;61431;-72
2022/07/17 02:54:47;;;;;;;11.80;10.70;;;;;;;10.16;100.00;99672.64;105062;1271;61316;-71
2022/07/17 02:57:14;;;;;;;11.00;9.90;;;;;;;10.16;100.00;99671.91;105188;1271;61359;-71
2022/07/17 02:59:40;;;;;;;11.30;10.10;;;;;;;10.17;100.00;99669.91;105214;1271;61427;-72
2022/07/17 03:02:06;;;;;;;11.20;9.80;;;;;;;10.18;100.00;99671.10;105215;1271;61396;-71
2022/07/17 03:04:34;;;;;;;12.10;10.80;;;;;;;10.20;100.00;99675.63;105214;1271;61385;-71
2022/07/17 03:07:00;;;;;;;12.30;10.30;;;;;;;10.21;100.00;99672.90;105213;1271;61260;-72
2022/07/17 03:09:26;;;;;;;12.00;10.90;;;;;;;10.23;100.00;99675.24;105212;1271;61366;-72
2022/07/17 03:11:52;;;;;;;10.90;9.70;;;;;;;10.24;100.00;99673.95;105207;1271;61268;-71
2022/07/17 03:14:18;;;;;;;11.70;10.60;;;;;;;10.26;100.00;99678.27;105177;1271;61496;-71
2022/07/17 03:16:44;;;;;;;10.90;9.70;;;;;;;10.29;100.00;99677.99;105193;1271;61323;-72
2022/07/17 03:19:10;;;;;;;11.50;10.30;;;;;;;10.31;100.00;99682.29;105200;1271;61245;-72
2022/07/17 03:21:36;;;;;;;10.90;9.90;;;;;;;10.36;100.00;99684.20;105213;1270;61396;-71
2022/07/17 03:24:03;;;;;;;10.30;9.40;;;;;;;10.40;100.00;99687.50;104966;1271;61470;-71
2022/07/17 03:26:29;;;;;;;10.80;9.70;;;;;;;10.46;100.00;99687.17;104968;1271;61600;-72
2022/07/17 03:28:55;;;;;;;10.70;9.60;;;;;;;10.69;100.00;99691.92;105163;1271;61360;-72
2022/07/17 03:31:20;;;;;;;9.30;8.40;;;;;;;11.20;100.00;99695.44;104976;1268;76242;-72
2022/07/17 03:33:46;;;;;;;10.70;7.40;;;;;;;12.03;100.00;99691.36;105216;1271;61268;-72
2022/07/17 03:36:13;;;;;;;7.70;7.00;;;;;;;12.92;100.00;99695.55;105218;1271;61446;-72
2022/07/17 03:38:39;;;;;;;6.10;5.60;;;;;;;13.66;100.00;99690.94;105210;1271;61291;-72
2022/07/17 03:41:05;;;;;;;5.80;5.30;;;;;;;14.35;100.00;99691.86;105210;1271;61294;-72
2022/07/17 03:43:31;;;;;;;7.60;5.40;;;;;;;14.92;100.00;99691.27;105189;1271;61269;-70
2022/07/17 03:45:57;;;;;;;5.00;4.50;;;;;;;15.47;100.00;99696.91;105196;1271;61396;-72
2022/07/17 03:48:23;;;;;;;7.30;5.10;;;;;;;16.10;100.00;99693.10;105171;1271;61290;-73
2022/07/17 03:50:49;;;;;;;5.40;4.30;;;;;;;16.63;100.00;99696.79;105214;1271;61361;-72
2022/07/17 03:53:15;;;;;;;4.60;4.00;;;;;;;17.11;100.00;99694.70;105228;1271;61297;-71
2022/07/17 03:55:41;;;;;;;4.50;4.10;;;;;;;17.52;100.00;99698.80;105242;1270;70244;-72
2022/07/17 03:58:07;;;;;;;4.00;3.60;;;;;;;17.87;100.00;99699.19;105191;1271;61377;-72
2022/07/17 04:00:33;;;;;;;5.60;4.10;;;;;;;18.21;100.00;99702.58;105179;1271;61415;-71
2022/07/17 04:02:59;;;;;;;9.70;4.80;;;;;;;18.54;100.00;99701.19;105226;1271;61303;-72
2022/07/17 04:05:26;;;;;;;4.50;3.70;;;;;;;18.92;100.00;99701.55;105199;1269;61853;-73
2022/07/17 04:07:52;;;;;;;4.30;3.60;;;;;;;19.25;100.00;99700.71;104947;1271;61440;-71
2022/07/17 04:10:18;;;;;;;6.00;3.50;;;;;;;19.50;100.00;99703.06;105193;1271;61390;-71
2022/07/17 04:12:44;;;;;;;4.60;3.80;;;;;;;19.84;100.00;99700.88;105217;1268;61372;-71
2022/07/17 04:15:11;;;;;;;4.30;3.50;;;;;;;20.25;100.00;99697.67;105204;1271;61415;-71
2022/07/17 04:17:37;;;;;;;4.80;3.60;;;;;;;20.57;100.00;99706.13;104904;1271;61484;-71
2022/07/17 04:20:05;;;;;;;4.40;3.30;;;;;;;20.76;100.00;99703.08;105231;1271;61359;-71
2022/07/17 04:22:31;;;;;;;4.20;3.80;;;;;;;21.03;100.00;99707.79;105203;1271;61384;-72
2022/07/17 04:24:57;;;;;;;4.30;3.40;;;;;;;21.35;100.00;99706.89;105233;1271;61384;-73
2022/07/17 04:27:23;;;;;;;4.10;3.70;;;;;;;21.53;100.00;99708.95;105205;1268;61255;-71
2022/07/17 04:29:49;;;;;;;3.70;3.10;;;;;;;21.57;100.00;99712.68;105183;1268;61384;-73
2022/07/17 04:32:15;;;;;;;4.60;3.80;;;;;;;21.67;100.00;99720.36;105226;1271;61307;-71
2022/07/17 04:34:42;;;;;;;5.10;3.60;;;;;;;21.71;100.00;99720.86;105214;1268;61367;-73
2022/07/17 04:37:08;;;;;;;5.60;3.60;;;;;;;21.83;100.00;99727.08;105404;1270;62050;-72
2022/07/17 04:39:33;;;;;;;3.90;3.40;;;;;;;21.91;100.00;99725.14;105448;1271;61395;-73
2022/07/17 04:42:00;;;;;;;4.70;3.00;;;;;;;21.90;100.00;99727.91;105431;1268;61284;-72
2022/07/17 04:44:26;;;;;;;4.40;3.20;;;;;;;22.03;100.00;99731.85;105173;1269;61285;-72
2022/07/17 04:46:52;;;;;;;3.40;2.70;;;;;;;22.18;100.00;99734.31;105180;1271;61372;-72
2022/07/17 04:49:18;;;;;;;3.80;3.20;;;;;;;22.26;100.00;99732.66;104969;1271;61372;-72
2022/07/17 04:51:44;;;;;;;4.80;2.50;;;;;;;22.37;100.00;99734.52;105311;1270;61373;-72
2022/07/17 04:54:10;;;;;;;5.50;3.30;;;;;;;22.46;100.00;99735.55;105245;1271;61376;-72
2022/07/17 04:56:36;;;;;;;4.70;2.90;;;;;;;22.58;100.00;99738.31;105228;1271;61348;-72
2022/07/17 04:59:03;;;;;;;4.90;3.50;;;;;;;22.76;100.00;99736.79;105213;1271;61351;-72
2022/07/17 05:01:29;;;;;;;5.00;3.20;;;;;;;22.87;100.00;99735.93;105225;1271;74903;-72
2022/07/17 05:03:56;;;;;;;5.40;3.10;;;;;;;23.00;100.00;99734.04;104945;1271;61459;-72
2022/07/17 05:06:22;;;;;;;3.00;2.70;;;;;;;23.12;100.00;99739.14;105173;1270;61821;-72
2022/07/17 05:08:48;;;;;;;4.20;2.90;;;;;;;23.05;100.00;99738.74;105175;1271;61390;-71
2022/07/17 05:11:14;;;;;;;3.90;3.00;;;;;;;22.95;100.00;99738.96;105177;1271;61351;-72
2022/07/17 05:13:40;;;;;;;4.60;2.80;;;;;;;22.87;100.00;99740.34;105171;1271;61303;-72
2022/07/17 05:16:06;;;;;;;4.80;3.20;;;;;;;22.65;100.00;99745.57;105191;1271;61304;-72
2022/07/17 05:18:33;;;;;;;4.80;3.00;;;;;;;22.54;100.00;99743.81;104930;1272;61418;-72
2022/07/17 05:20:59;;;;;;;3.80;3.10;;;;;;;22.60;100.00;99744.94;105194;1271;61351;-72
2022/07/17 05:23:24;;;;;;;5.00;3.90;;;;;;;22.84;100.00;99739.52;105225;1270;61685;-72
2022/07/17 05:25:51;;;;;;;5.80;4.00;;;;;;;23.02;100.00;99743.79;105266;1269;61761;-72
2022/07/17 05:28:17;;;;;;;5.10;3.50;;;;;;;22.98;100.00;99743.66;105182;1271;73403;-73
2022/07/17 05:30:43;;;;;;;4.90;3.40;;;;;;;22.81;100.00;99746.54;105170;1271;61973;-72
2022/07/17 05:33:09;;;;;;;8.40;3.20;;;;;;;22.68;100.00;99742.36;104990;1271;61367;-73
2022/07/17 05:35:35;;;;;;;4.10;3.10;;;;;;;22.82;100.00;99743.41;104911;1271;61428;-71
2022/07/17 05:38:01;;;;;;;5.20;3.30;;;;;;;22.96;100.00;99743.32;105083;1271;61166;-73
2022/07/17 05:40:28;;;;;;;4.60;3.60;;;;;;;22.84;100.00;99747.56;105196;1270;61151;-72
2022/07/17 05:42:54;;;;;;;3.20;2.90;;;;;;;22.89;100.00;99749.52;105228;1271;61282;-73
2022/07/17 05:45:20;;;;;;;4.40;3.10;;;;;;;22.87;100.00;99756.05;105274;1271;61256;-73
2022/07/17 05:47:46;;;;;;;3.90;3.10;;;;;;;22.87;100.00;99756.79;105269;1269;61322;-71
2022/07/17 05:50:12;;;;;;;5.90;3.20;;;;;;;22.98;100.00;99756.78;105319;1271;61294;-72
2022/07/17 05:52:38;;;;;;;5.00;2.70;;;;;;;23.11;100.00;99758.10;105299;1270;61285;-72
2022/07/17 05:55:06;;;;;;;5.60;2.50;;;;;;;23.10;100.00;99756.95;105338;1270;60424;-72
2022/07/17 05:57:33;;;;;;;7.60;1.90;;;;;;;23.18;100.00;99761.70;105250;1271;76555;-72
2022/07/17 05:59:59;;;;;;;4.40;2.00;;;;;;;23.37;100.00;99761.06;105252;1271;69209;-73
2022/07/17 06:02:25;;;;;;;4.30;2.00;;;;;;;23.48;100.00;99765.68;105261;1271;61298;-72
2022/07/17 06:04:51;;;;;;;5.10;1.70;;;;;;;23.57;99.87;99765.63;105249;1271;61383;-73
2022/07/17 06:07:17;;;;;;;4.50;1.80;;;;;;;23.49;100.00;99766.13;105241;1269;61378;-73
2022/07/17 06:09:43;;;;;;;5.90;1.70;;;;;;;23.35;100.00;99769.13;105226;1271;61260;-72
2022/07/17 06:12:09;;;;;;;4.50;2.00;;;;;;;23.32;100.00;99769.05;105208;1271;61325;-72
2022/07/17 06:14:35;;;;;;;3.70;1.70;;;;;;;23.34;99.23;99774.26;105236;1268;61412;-72
2022/07/17 06:17:02;;;;;;;3.50;1.50;;;;;;;23.09;92.86;99773.10;105239;1271;61328;-73
2022/07/17 06:19:28;;;;;;;2.90;2.10;;;;;;;22.81;93.02;99774.69;105012;1271;61403;-72
2022/07/17 06:21:53;;;;;;;4.90;1.70;;;;;;;22.72;93.35;99775.40;105002;1271;61385;-73
2022/07/17 06:24:20;;;;;;;4.00;2.00;;;;;;;23.00;95.04;99772.15;105221;1268;71600;-73
2022/07/17 06:26:46;;;;;;;3.10;1.70;;;;;;;23.31;94.98;99779.17;105202;1271;61422;-73
2022/07/17 06:29:12;;;;;;;3.40;1.40;;;;;;;23.47;94.61;99781.23;104962;1271;61291;-73
2022/07/17 06:31:38;;;;;;;4.80;1.50;;;;;;;23.52;93.72;99783.04;105231;1271;61584;-72
2022/07/17 06:34:04;;;;;;;5.10;1.90;;;;;;;23.58;93.28;99785.98;105221;1268;61347;-72
2022/07/17 06:36:31;;;;;;;2.40;1.30;;;;;;;23.58;92.82;99785.98;105241;1271;61391;-73
2022/07/17 06:38:57;;;;;;;3.80;1.70;;;;;;;23.55;92.70;99790.63;105238;1271;61378;-73
2022/07/17 06:41:23;;;;;;;4.00;1.60;;;;;;;23.43;92.02;99793.13;105227;1268;61233;-73
2022/07/17 06:43:49;;;;;;;4.20;1.90;;;;;;;23.46;92.78;99788.03;105205;1269;61301;-72
2022/07/17 06:46:15;;;;;;;4.50;1.40;;;;;;;23.44;90.04;99795.87;105181;1271;61259;-72
2022/07/17 06:48:41;;;;;;;3.10;1.80;;;;;;;22.97;89.12;99797.02;105218;1268;61410;-72
2022/07/17 06:51:07;;;;;;;4.80;2.40;;;;;;;22.57;88.59;99799.29;105237;1271;61173;-72
2022/07/17 06:53:34;;;;;;;4.60;1.80;;;;;;;22.38;89.22;99799.23;105204;1270;61383;-72
2022/07/17 06:56:00;;;;;;;3.00;1.50;;;;;;;22.47;91.54;99797.09;105231;1271;61265;-73
2022/07/17 06:58:26;;;;;;;3.10;1.80;;;;;;;22.72;92.28;99798.56;105180;1269;61374;-73
2022/07/17 07:00:53;;;;;;;3.20;1.40;;;;;;;22.74;89.60;99797.83;105207;1271;61271;-73
2022/07/17 07:03:18;;;;;;;4.80;1.50;;;;;;;22.74;91.44;99798.05;105254;1270;61476;-72
2022/07/17 07:05:44;;;;;;;3.10;1.50;;;;;;;22.69;90.20;99797.42;105223;1270;61314;-73
2022/07/17 07:08:11;;;;;;;3.80;1.40;;;;;;;22.65;91.56;99797.17;104987;1271;61314;-73
2022/07/17 07:10:37;;;;;;;4.00;1.80;;;;;;;22.81;91.24;99799.09;104966;1271;61741;-74
2022/07/17 07:13:03;;;;;;;2.90;1.30;;;;;;;22.77;90.10;99797.03;104931;1270;61458;-72
2022/07/17 07:15:29;;;;;;;4.20;1.30;;;;;;;22.67;90.75;99799.63;105230;1271;61025;-73
2022/07/17 07:17:55;;;;;;;5.10;1.40;;;;;;;22.60;91.41;99801.71;105194;1271;61362;-75
2022/07/17 07:20:21;;;;;;;4.70;2.10;;;;;;;22.76;92.45;99799.78;105222;1271;61330;-72
2022/07/17 07:22:47;;;;;;;5.30;1.50;;;;;;;22.91;92.74;99799.89;105234;1271;61366;-75
2022/07/17 07:25:14;;;;;;;1.80;1.00;;;;;;;22.97;92.26;99799.95;104929;1271;61400;-72
2022/07/17 07:27:40;;;;;;;3.20;1.20;;;;;;;22.95;91.94;99795.84;105237;1271;75392;-71
2022/07/17 07:30:10;;;;;;;2.60;1.00;;;;;;;22.71;91.80;99798.29;105190;1271;61268;-72
2022/07/17 07:32:37;;;;;;;3.60;1.40;;;;;;;22.34;92.57;99798.92;105216;1271;73389;-73
2022/07/17 07:35:04;;;;;;;3.20;1.20;;;;;;;21.98;93.54;99800.75;105236;1268;61322;-72
2022/07/17 07:37:31;;;;;;;6.20;1.40;;;;;;;21.80;94.56;99803.73;105080;1271;62152;-72
2022/07/17 07:39:59;;;;;;;4.20;1.10;;;;;;;21.62;95.15;99805.53;105212;1270;61301;-73
2022/07/17 07:42:26;;;;;;;4.10;1.30;;;;;;;21.41;94.67;99808.11;105269;1269;69727;-72
2022/07/17 07:44:52;;;;;;;4.60;1.40;;;;;;;21.22;94.59;99809.80;105220;1270;74682;-72
2022/07/17 07:47:18;;;;;;;3.80;0.90;;;;;;;21.12;95.67;99812.98;104917;1271;61361;-73
2022/07/17 07:49:44;;;;;;;2.70;1.00;;;;;;;21.05;95.95;99815.27;105244;1270;61308;-73
2022/07/17 07:52:10;;;;;;;5.30;1.50;;;;;;;21.00;95.27;99816.45;105226;1269;61251;-73
2022/07/17 07:54:36;;;;;;;5.10;1.10;;;;;;;20.79;96.19;99817.44;105216;1268;61291;-72
2022/07/17 07:57:02;;;;;;;2.00;0.90;;;;;;;20.73;96.57;99819.86;105228;1271;61264;-73
2022/07/17 07:59:32;;;;;;;7.20;1.30;;;;;;;20.69;96.98;99820.75;105209;1268;61472;-73
2022/07/17 08:02:00;;;;;;;2.50;1.20;;;;;;;20.73;97.82;99824.88;105264;1269;61242;-73
2022/07/17 08:04:26;;;;;;;4.20;1.00;;;;;;;20.76;97.20;99824.38;105362;1268;76397;-73
2022/07/17 08:06:53;;;;;;;2.80;1.20;;;;;;;20.83;98.59;99823.73;104988;1268;61280;-73
2022/07/17 08:09:19;;;;;;;3.50;0.70;;;;;;;20.88;97.28;99820.40;105219;1268;61345;-72
2022/07/17 08:11:45;;;;;;;1.60;0.70;;;;;;;20.87;97.12;99827.14;105186;1268;61457;-73
2022/07/17 08:14:11;;;;;;;2.20;0.60;;;;;;;20.88;94.17;99823.42;105214;1268;61237;-73
2022/07/17 08:16:38;;;;;;;2.70;0.90;;;;;;;20.79;92.86;99824.48;105251;1268;61384;-74
2022/07/17 08:19:03;;;;;;;3.90;1.20;;;;;;;20.75;94.76;99826.70;105170;1271;61295;-74
2022/07/17 08:21:29;;;;;;;3.50;1.10;;;;;;;20.87;95.66;99820.80;105194;1268;61248;-73
2022/07/17 08:23:56;;;;;;;3.40;1.20;;;;;;;21.04;94.47;99825.98;105209;1269;61372;-72
2022/07/17 08:26:22;;;;;;;3.50;1.20;;;;;;;21.16;92.85;99828.06;105219;1268;61376;-71
2022/07/17 08:28:48;;;;;;;2.40;0.50;;;;;;;21.20;94.00;99828.45;105225;1269;61475;-71
2022/07/17 08:31:14;;;;;;;2.50;0.60;;;;;;;21.32;90.34;99818.93;105286;1270;61384;-71
2022/07/17 08:33:40;;;;;;;2.60;0.80;;;;;;;21.37;88.24;99822.77;105249;1268;61244;-72
2022/07/17 08:36:06;;;;;;;2.30;0.60;;;;;;;21.45;89.34;99825.25;105217;1271;61287;-71
2022/07/17 08:38:33;;;;;;;3.10;0.70;;;;;;;21.59;89.78;99832.21;105197;1269;61173;-72
2022/07/17 08:40:59;;;;;;;2.20;0.80;;;;;;;21.87;89.67;99835.38;104945;1271;61362;-72
2022/07/17 08:43:25;;;;;;;4.20;0.80;;;;;;;22.18;89.39;99831.31;105247;1268;61374;-73
2022/07/17 08:45:52;;;;;;;1.50;0.60;;;;;;;22.57;89.78;99828.97;105196;1268;61384;-71
2022/07/17 08:48:18;;;;;;;3.30;0.70;;;;;;;22.96;88.24;99829.84;104996;1271;61274;-73
2022/07/17 08:50:46;;;;;;;3.60;1.00;;;;;;;22.89;85.74;99831.27;105210;1268;61324;-72
2022/07/17 08:53:12;;;;;;;2.20;1.20;;;;;;;22.93;85.15;99833.55;105394;1268;61270;-72
2022/07/17 08:55:38;;;;;;;2.90;1.00;;;;;;;23.23;86.07;99832.42;105179;1268;61364;-73
2022/07/17 08:58:04;;;;;;;0.90;0.60;;;;;;;23.48;83.11;99834.00;105213;1271;61394;-72
2022/07/17 09:00:31;;;;;;;2.10;0.90;;;;;;;23.53;70.80;99838.58;105232;1269;61331;-72
2022/07/17 09:03:03;;;;;;;2.00;1.20;;;;;;;23.56;70.34;99838.77;105224;1268;61281;-73
2022/07/17 09:05:36;;;;;;;2.80;0.80;;;;;;;23.51;69.84;99842.65;105293;1270;69377;-72
2022/07/17 09:08:04;;;;;;;3.20;0.90;;;;;;;23.31;68.19;99846.02;105264;1271;72286;-72
2022/07/17 09:10:38;;;;;;;3.60;1.10;;;;;;;23.25;66.56;99843.38;105236;1269;61205;-72
2022/07/17 09:13:19;;;;;;;2.20;1.20;;;;;;;23.14;63.71;99843.89;105279;1271;61360;-72
2022/07/17 09:15:47;;;;;;;2.80;0.90;;;;;;;22.89;62.96;99849.54;105189;1270;72489;-71
2022/07/17 09:18:15;;;;;;;3.80;0.70;;;;;;;22.45;61.64;99856.69;105350;1271;69887;-73
2022/07/17 09:20:54;;;;;;;2.90;0.90;;;;;;;22.24;63.36;99855.95;104964;1271;74601;-73
2022/07/17 09:23:24;;;;;;;2.00;0.70;;;;;;;22.31;63.67;99852.98;105369;1268;61391;-73
2022/07/17 09:25:54;;;;;;;3.50;0.80;;;;;;;22.45;62.22;99855.80;105594;1271;61249;-72
2022/07/17 09:28:21;;;;;;;1.60;1.10;;;;;;;22.41;61.43;99860.48;105449;1271;75366;-72
2022/07/17 09:30:51;;;;;;;1.80;0.80;;;;;;;22.19;60.44;99860.56;105470;1271;69203;-72
2022/07/17 09:33:19;;;;;;;5.40;1.00;;;;;;;21.85;60.12;99857.98;105171;1271;73500;-72
2022/07/17 09:35:53;;;;;;;2.20;0.80;;;;;;;21.85;60.07;99854.23;105055;1271;61461;-72
2022/07/17 09:38:35;;;;;;;2.30;0.90;;;;;;;22.05;60.57;99853.58;105307;1268;62424;-73
2022/07/17 09:41:15;;;;;;;1.20;0.60;;;;;;;21.96;59.81;99860.69;105037;1271;76433;-74
2022/07/17 09:43:44;;;;;;;2.40;0.80;;;;;;;22.04;60.18;99861.54;105264;1268;70236;-71
2022/07/17 09:46:19;;;;;;;2.70;0.80;;;;;;;22.27;60.64;99864.69;104813;1268;652943;-75
2022/07/17 09:48:49;;;;;;;0.90;0.60;;;;;;;22.21;59.94;99868.48;105226;1269;61380;-74
2022/07/17 09:51:21;;;;;;;2.60;0.90;;;;;;;22.05;60.01;99865.73;105248;1268;61247;-73
2022/07/17 09:53:49;;;;;;;2.60;1.00;;;;;;;22.38;61.35;99864.62;105438;1269;75669;-72
2022/07/17 09:56:18;;;;;;;1.10;0.90;;;;;;;22.81;60.82;99854.56;105260;1271;68572;-73
2022/07/17 09:58:49;;;;;;;2.00;1.00;;;;;;;23.12;58.96;99850.59;105237;1271;72999;-73
2022/07/17 10:01:17;;;;;;;1.70;0.80;;;;;;;22.85;54.20;99848.83;105175;1271;61368;-73
2022/07/17 10:03:44;;;;;;;1.20;0.70;;;;;;;22.47;52.14;99853.55;105268;1271;62095;-73
2022/07/17 10:06:11;;;;;;;3.70;1.30;;;;;;;22.12;52.41;99858.98;105228;1268;74859;-72
2022/07/17 10:08:38;;;;;;;1.20;0.80;;;;;;;21.78;53.32;99857.96;105196;1271;70633;-73
2022/07/17 10:11:09;;;;;;;1.80;0.90;;;;;;;21.59;53.10;99853.00;105121;1271;72523;-75
2022/07/17 10:13:41;;;;;;;1.70;1.00;;;;;;;21.55;54.02;99855.95;104941;1271;61461;-73
2022/07/17 10:16:08;;;;;;;3.80;0.90;;;;;;;21.89;53.95;99855.77;105391;1268;62224;-73
2022/07/17 10:18:42;;;;;;;2.00;0.80;;;;;;;22.26;55.11;99855.65;105238;1268;76357;-72
2022/07/17 10:21:14;;;;;;;2.40;0.70;;;;;;;22.73;54.39;99846.67;105247;1271;70496;-72
2022/07/17 10:23:48;;;;;;;3.10;1.00;;;;;;;22.89;54.07;99844.52;105311;1268;74249;-72
2022/07/17 10:26:15;;;;;;;4.10;1.60;;;;;;;22.85;53.74;99844.39;105020;1271;62672;-72
2022/07/17 10:28:44;;;;;;;2.80;0.80;;;;;;;22.71;53.65;99850.20;105256;1271;61412;-72
2022/07/17 10:31:23;;;;;;;2.40;0.90;;;;;;;22.41;51.30;99857.77;105299;1269;74307;-73
2022/07/17 10:34:00;;;;;;;1.50;0.90;;;;;;;22.41;52.70;99858.84;105032;1271;70397;-73
2022/07/17 10:36:38;;;;;;;2.70;0.90;;;;;;;22.77;52.32;99851.38;105298;1269;73235;-72
2022/07/17 10:39:24;;;;;;;1.90;0.70;;;;;;;23.04;49.94;99848.95;105233;1268;61386;-72
2022/07/17 10:41:59;;;;;;;2.20;0.80;;;;;;;23.47;50.15;99845.60;105256;1271;61137;-73
2022/07/17 10:44:29;;;;;;;3.30;1.30;;;;;;;23.61;50.50;99845.14;105329;1268;76344;-73
2022/07/17 10:46:56;;;;;;;1.70;0.80;;;;;;;23.55;50.90;99853.61;104989;1271;69167;-73
2022/07/17 10:49:24;;;;;;;2.40;1.20;;;;;;;23.60;51.05;99851.42;105308;1268;74358;-73
2022/07/17 10:51:50;;;;;;;3.50;1.00;;;;;;;23.77;50.41;99850.00;105202;1271;61294;-73
2022/07/17 10:54:19;;;;;;;2.10;1.00;;;;;;;23.90;48.93;99856.93;105240;1271;61250;-73
2022/07/17 10:56:46;;;;;;;4.00;1.10;;;;;;;23.92;48.90;99855.81;105329;1269;75941;-73
2022/07/17 10:59:13;;;;;;;2.40;1.00;;;;;;;23.95;49.14;99852.04;104974;1271;70334;-74
2022/07/17 11:01:39;;;;;;;5.10;1.10;;;;;;;23.82;47.36;99851.84;105045;1271;73625;-73
2022/07/17 11:04:06;;;;;;;2.50;1.20;;;;;;;23.47;47.32;99851.96;105220;1271;62807;-73
2022/07/17 11:06:33;;;;;;;5.90;1.30;;;;;;;23.36;47.99;99850.95;105211;1268;61554;-73
2022/07/17 11:09:08;;;;;;;5.30;1.20;;;;;;;23.34;47.78;99850.63;105240;1271;76603;-72
2022/07/17 11:11:51;;;;;;;1.90;1.30;;;;;;;23.44;48.39;99845.86;105248;1271;69285;-73
2022/07/17 11:14:23;;;;;;;2.00;1.10;;;;;;;23.56;47.78;99842.23;105225;1271;73876;-73
2022/07/17 11:16:57;;;;;;;3.70;1.10;;;;;;;23.37;48.56;99845.02;105229;1271;61390;-73
2022/07/17 11:19:42;;;;;;;3.00;1.30;;;;;;;23.26;48.21;99845.86;105327;1271;61740;-73